Pagrindinis puslapis
METAR-TAF:

METAR-TAF

Oro uostai :

Tefė, Amazonė, Brazilija

platuma: 03-22S, ilguma: 064-41W, Aukštis: 47 m

Dabartinis oras

Ataskaita buvo paskelbta 59 minutes, ne 22:45 UTC
Vėjas 3 kt iš Pietryčių
Temperatūra 27°C
Drėgmė 84%
Slėgis 1008 hPa
Matomumas 10 km arba daugiau
Mažai debesys ne aukštis 1500 ft

METAR: SBTF 042245Z 14003KT 9999 FEW015 27/24 Q1008

Laikas: 19:44 (23:44 UTC)

Prognozė

Ataskaita buvo paskelbta 3 valandos ir 4 minutes, ne 20:40 UTC
Prognozė galioja nuo 05 metu 00 UTC su 05 metu 12 UTC
Vėjas 10 kt iš Šiaurės Rytų
Matomumas 10 km arba daugiau
Išsisklaidę debesys ne aukštis 2000 ft
Mažai debesys ne aukštis 3000 ft, aukštai iškilę kamuoliniai debesys.
Tapsmas
nuo 05 metu 10 UTC su 05 metu 12 UTC
Vėjas 7 kt iš Pietų/Pietryčių
Matomumas: 8000 m
Išsisklaidę debesys ne aukštis 1000 ft

TAF: SBTF 042040Z 0500/0512 05010KT 9999 SCT020 FEW030TCU TN23/0510Z TX26/0512Z BECMG 0510/0512 16007KT 8000 SCT010 RMK PGB

Orai ataskaitas ir orų prognozės (METAR, TAF).

turimą stotys yra geltonos ir raudonos taškus žemėlapyje.

Perkelti pele per norėdami pamatyti stoties vardą.

Tada spustelėkite, norėdami matyti oro stebėjimo ir prognozės.

Norėdami pakeisti žemėlapį: spustelėkite ant žalios mygtukų su juodo kryžiaus žemyn,; žalią mygtuką su brūkšneliu, jei norite nutolinti; arba žalių rodyklių gretimoms žemėlapius.


METAR-TAF: